Terminal Aerodrome Forecast
Issued by NWS

Home | Current Version | Previous Version | Text Only | Print | Product List | Glossary On
Versions: 1 2 3 4 5 6 7 8 9 10 11 12 13
000
FTUS46 KSTO 172300
TAFMHR
TAF
KMHR 172340Z 1800/1824 25010KT P6SM FEW180
     FM180300 20006KT P6SM SCT100 BKN200
     FM181000 17005KT P6SM VCSH SCT035 BKN060=

USA.gov is the U.S. government's official web portal to all federal, state and local government web resources and services.